createdAt,value
2023-04-22T00:00:58.854Z,4.63
2023-04-22T00:03:28.925Z,4.80
2023-04-22T00:05:57.581Z,4.77
2023-04-22T00:08:27.179Z,5.37
2023-04-22T00:10:56.569Z,5.03
2023-04-22T00:13:24.627Z,5.43
2023-04-22T00:15:52.829Z,5.20
2023-04-22T00:18:21.052Z,5.20
2023-04-22T00:20:49.153Z,5.10
2023-04-22T00:23:18.410Z,4.40
2023-04-22T00:25:47.835Z,4.00
2023-04-22T00:28:15.821Z,3.97
2023-04-22T00:30:43.819Z,3.87
2023-04-22T00:33:11.930Z,3.83
2023-04-22T00:35:40.254Z,3.53
2023-04-22T00:38:08.232Z,3.60
2023-04-22T00:40:36.220Z,3.33
2023-04-22T00:43:05.992Z,3.40
2023-04-22T00:45:35.134Z,3.60
2023-04-22T00:48:03.642Z,3.87
2023-04-22T00:50:31.807Z,3.37
2023-04-22T00:52:59.898Z,3.77
2023-04-22T00:55:28.567Z,3.53
2023-04-22T00:57:59.474Z,3.83
2023-04-22T01:00:29.943Z,3.80
2023-04-22T01:02:59.353Z,4.00
2023-04-22T01:05:28.509Z,3.73
2023-04-22T01:07:56.531Z,3.60
2023-04-22T01:10:25.002Z,3.77
2023-04-22T01:12:53.127Z,3.57
2023-04-22T01:15:21.225Z,3.30
2023-04-22T01:17:50.925Z,3.60
2023-04-22T01:20:25.451Z,3.37
2023-04-22T01:22:55.431Z,3.03
2023-04-22T01:25:25.125Z,3.10
2023-04-22T01:27:54.034Z,3.03
2023-04-22T01:30:22.262Z,3.50
2023-04-22T01:32:51.058Z,3.40
2023-04-22T01:35:19.108Z,3.53
2023-04-22T01:37:47.148Z,3.60
2023-04-22T01:40:19.766Z,3.43
2023-04-22T01:42:50.064Z,3.70
2023-04-22T01:45:18.524Z,3.70
2023-04-22T01:47:46.520Z,3.07
2023-04-22T01:50:14.583Z,3.50
2023-04-22T01:52:42.666Z,3.50
2023-04-22T01:55:11.319Z,3.40
2023-04-22T01:57:39.297Z,3.20
2023-04-22T02:00:10.496Z,3.20
2023-04-22T02:02:38.805Z,3.60
2023-04-22T02:05:08.570Z,3.63
2023-04-22T02:07:37.236Z,3.60
2023-04-22T02:10:06.245Z,4.20
2023-04-22T02:12:34.340Z,3.57
2023-04-22T02:15:02.381Z,3.60
2023-04-22T02:17:31.766Z,3.73
2023-04-22T02:20:00.036Z,3.50
2023-04-22T02:22:29.489Z,3.43
2023-04-22T02:24:57.476Z,3.40
2023-04-22T02:27:25.560Z,3.43
2023-04-22T02:29:53.748Z,3.73
2023-04-22T02:32:21.780Z,3.00
2023-04-22T02:34:51.692Z,3.47
2023-04-22T02:37:20.710Z,3.37
2023-04-22T02:39:48.847Z,3.13
2023-04-22T02:42:16.925Z,3.30
2023-04-22T02:44:44.968Z,3.20
2023-04-22T02:47:13.025Z,3.33
2023-04-22T02:49:41.463Z,3.40
2023-04-22T02:52:13.710Z,3.17
2023-04-22T02:54:41.640Z,3.27
2023-04-22T02:57:09.636Z,3.50
2023-04-22T02:59:38.106Z,3.40
2023-04-22T03:02:07.012Z,3.00
2023-04-22T03:04:35.554Z,3.40
2023-04-22T03:07:04.269Z,3.30
2023-04-22T03:09:33.792Z,2.90
2023-04-22T03:12:02.657Z,3.33
2023-04-22T03:14:30.696Z,3.23
2023-04-22T03:16:58.748Z,3.37
2023-04-22T03:19:26.983Z,3.43
2023-04-22T03:21:56.487Z,3.50
2023-04-22T03:24:24.454Z,3.90
2023-04-22T03:26:53.869Z,3.47
2023-04-22T03:29:21.820Z,3.37
2023-04-22T03:31:49.940Z,3.63
2023-04-22T03:34:18.169Z,4.07
2023-04-22T03:36:46.225Z,4.20
2023-04-22T03:39:14.253Z,3.73
2023-04-22T03:41:42.271Z,3.70
2023-04-22T03:44:11.711Z,3.90
2023-04-22T03:46:39.740Z,3.83
2023-04-22T03:49:08.331Z,4.03
2023-04-22T03:51:36.444Z,4.00
2023-04-22T03:54:04.492Z,4.27
2023-04-22T03:56:33.738Z,4.83
2023-04-22T03:59:01.738Z,4.70
2023-04-22T04:01:31.082Z,5.50
2023-04-22T04:03:59.232Z,6.33
2023-04-22T04:06:28.068Z,6.20
2023-04-22T04:08:56.113Z,6.57
2023-04-22T04:11:24.292Z,6.27
2023-04-22T04:13:52.312Z,7.00
2023-04-22T04:16:20.329Z,7.83
2023-04-22T04:18:52.465Z,6.03
2023-04-22T04:21:20.496Z,5.80
2023-04-22T04:23:48.762Z,5.93
2023-04-22T04:26:16.831Z,5.97
2023-04-22T04:28:44.939Z,5.40
2023-04-22T04:31:13.139Z,5.63
2023-04-22T04:33:41.236Z,6.33
2023-04-22T04:36:10.817Z,5.53
2023-04-22T04:38:39.060Z,6.00
2023-04-22T04:41:08.601Z,5.97
2023-04-22T04:43:36.782Z,5.90
2023-04-22T04:46:04.883Z,6.00
2023-04-22T04:48:36.402Z,6.20
2023-04-22T04:51:06.177Z,5.03
2023-04-22T04:53:35.578Z,5.77
2023-04-22T04:56:04.068Z,4.87
2023-04-22T04:58:32.218Z,5.00
2023-04-22T05:01:00.398Z,4.33
2023-04-22T05:03:28.760Z,5.00
2023-04-22T05:05:57.582Z,4.10
2023-04-22T05:08:25.525Z,3.73
2023-04-22T05:10:54.973Z,4.33
2023-04-22T05:13:23.098Z,4.00
2023-04-22T05:15:51.306Z,4.27
2023-04-22T05:18:19.377Z,3.80
2023-04-22T05:20:47.413Z,3.90
2023-04-22T05:23:15.802Z,3.20
2023-04-22T05:25:44.001Z,3.50
2023-04-22T05:28:13.380Z,3.10
2023-04-22T05:30:41.310Z,3.30
2023-04-22T05:33:09.537Z,3.20
2023-04-22T05:35:37.546Z,3.30
2023-04-22T05:38:05.458Z,3.00
2023-04-22T05:40:33.380Z,3.40
2023-04-22T05:43:01.301Z,2.87
2023-04-22T05:45:30.938Z,3.47
2023-04-22T05:47:58.836Z,3.30
2023-04-22T05:50:26.996Z,3.70
2023-04-22T05:52:55.425Z,3.27
2023-04-22T05:55:23.511Z,3.20
2023-04-22T05:57:51.745Z,3.30
2023-04-22T06:00:19.944Z,3.27
2023-04-22T06:02:49.350Z,3.47
2023-04-22T06:05:17.663Z,3.67
2023-04-22T06:07:45.869Z,3.80
2023-04-22T06:10:13.897Z,3.37
2023-04-22T06:12:41.905Z,3.67
2023-04-22T06:15:11.562Z,3.17
2023-04-22T06:17:39.589Z,3.10
2023-04-22T06:20:09.835Z,2.83
2023-04-22T06:22:38.269Z,2.97
2023-04-22T06:25:07.130Z,2.93
2023-04-22T06:27:35.069Z,2.73
2023-04-22T06:30:03.054Z,2.77
2023-04-22T06:32:31.085Z,2.70
2023-04-22T06:34:59.034Z,2.47
2023-04-22T06:37:28.280Z,2.70
2023-04-22T06:39:56.173Z,2.80
2023-04-22T06:42:24.111Z,2.40
2023-04-22T06:44:52.028Z,3.20
2023-04-22T06:47:19.973Z,3.47
2023-04-22T06:49:47.899Z,3.20
2023-04-22T06:52:15.752Z,4.40
2023-04-22T06:54:44.969Z,3.80
2023-04-22T06:57:12.808Z,5.17
2023-04-22T06:59:41.219Z,4.00
2023-04-22T07:02:10.270Z,3.77
2023-04-22T07:04:38.227Z,3.30
2023-04-22T07:07:06.265Z,2.93
2023-04-22T07:09:36.118Z,2.90
2023-04-22T07:12:07.082Z,2.93
2023-04-22T07:14:35.135Z,3.00
2023-04-22T07:17:03.154Z,2.90
2023-04-22T07:19:33.214Z,2.90
2023-04-22T07:22:03.360Z,2.60
2023-04-22T07:24:31.795Z,2.70
2023-04-22T07:26:59.976Z,2.97
2023-04-22T07:29:29.610Z,2.87
2023-04-22T07:31:57.818Z,2.83
2023-04-22T07:34:26.124Z,3.03
2023-04-22T07:36:54.353Z,3.00
2023-04-22T07:39:22.749Z,3.10
2023-04-22T07:41:51.252Z,3.40
2023-04-22T07:44:21.841Z,3.50
2023-04-22T07:46:51.525Z,3.10
2023-04-22T07:49:19.946Z,3.20
2023-04-22T07:51:48.049Z,3.10
2023-04-22T07:54:16.205Z,3.40
2023-04-22T07:56:44.237Z,3.17
2023-04-22T07:59:12.240Z,3.30
2023-04-22T08:01:40.570Z,3.43
2023-04-22T08:04:10.253Z,3.23
2023-04-22T08:06:38.731Z,3.70
2023-04-22T08:09:07.132Z,2.90
2023-04-22T08:11:35.073Z,3.37
2023-04-22T08:14:02.935Z,3.00
2023-04-22T08:16:30.859Z,3.63
2023-04-22T08:18:58.817Z,3.83
2023-04-22T08:21:28.471Z,7.90
2023-04-22T08:23:56.436Z,4.60
2023-04-22T08:26:24.398Z,4.53
2023-04-22T08:28:52.293Z,3.83
2023-04-22T08:31:20.325Z,4.77
2023-04-22T08:33:48.591Z,4.47
2023-04-22T08:36:16.666Z,4.30
2023-04-22T08:38:46.901Z,4.23
2023-04-22T08:41:16.756Z,4.70
2023-04-22T08:43:45.303Z,5.23
2023-04-22T08:46:15.398Z,5.53
2023-04-22T08:48:43.509Z,5.20
2023-04-22T08:51:12.422Z,4.77
2023-04-22T08:53:40.439Z,5.00
2023-04-22T08:56:09.808Z,4.67
2023-04-22T08:58:38.087Z,5.23
2023-04-22T09:01:06.349Z,5.13
2023-04-22T09:03:35.722Z,5.17
2023-04-22T09:06:05.426Z,5.40
2023-04-22T09:08:33.456Z,5.00
2023-04-22T09:11:01.350Z,5.60
2023-04-22T09:13:31.009Z,6.20
2023-04-22T09:16:00.085Z,5.47
2023-04-22T09:18:28.129Z,6.33
2023-04-22T09:20:57.334Z,6.20
2023-04-22T09:23:25.505Z,5.70
2023-04-22T09:25:53.472Z,5.77
2023-04-22T09:28:21.304Z,5.40
2023-04-22T09:30:50.571Z,5.90
2023-04-22T09:33:18.461Z,6.30
2023-04-22T09:35:46.315Z,5.90
2023-04-22T09:38:14.848Z,5.70
2023-04-22T09:40:44.476Z,5.33
2023-04-22T09:43:12.912Z,5.03
2023-04-22T09:45:42.212Z,4.73
2023-04-22T09:48:13.197Z,4.97
2023-04-22T09:50:44.512Z,5.40
2023-04-22T09:53:14.925Z,5.23
2023-04-22T09:55:45.055Z,4.97
2023-04-22T09:58:14.971Z,5.00
2023-04-22T10:00:45.285Z,5.90
2023-04-22T10:03:14.848Z,5.40
2023-04-22T10:05:45.117Z,5.10
2023-04-22T10:08:14.480Z,5.77
2023-04-22T10:10:43.013Z,4.80
2023-04-22T10:13:11.226Z,5.50
2023-04-22T10:15:41.748Z,4.60
2023-04-22T10:18:13.494Z,4.77
2023-04-22T10:20:43.991Z,4.53
2023-04-22T10:23:15.948Z,4.27
2023-04-22T10:25:43.938Z,4.57
2023-04-22T10:28:13.533Z,4.87
2023-04-22T10:30:42.088Z,5.07
2023-04-22T10:33:39.535Z,4.40
2023-04-22T10:36:11.381Z,4.80
2023-04-22T10:38:40.720Z,4.40
2023-04-22T10:41:09.079Z,4.10
2023-04-22T10:43:44.171Z,4.53
2023-04-22T10:46:45.572Z,4.27
2023-04-22T10:49:16.476Z,3.97
2023-04-22T10:51:47.259Z,3.53
2023-04-22T10:55:01.486Z,3.87
2023-04-22T10:57:37.773Z,3.97
2023-04-22T11:00:45.759Z,3.83
2023-04-22T11:03:27.250Z,3.10
2023-04-22T11:06:17.149Z,3.40
2023-04-22T11:08:50.818Z,3.63
2023-04-22T11:11:19.486Z,4.27
2023-04-22T11:13:50.516Z,3.63
2023-04-22T11:16:20.464Z,3.17
2023-04-22T11:18:49.979Z,2.83
2023-04-22T11:21:17.899Z,3.30
2023-04-22T11:23:53.300Z,3.07
2023-04-22T11:26:34.818Z,2.97
2023-04-22T11:29:02.923Z,2.60
2023-04-22T11:31:32.339Z,2.67
2023-04-22T11:34:00.523Z,3.20
2023-04-22T11:36:28.772Z,2.40
2023-04-22T11:38:58.187Z,2.40
2023-04-22T11:41:26.517Z,2.53
2023-04-22T11:43:55.500Z,2.43
2023-04-22T11:46:30.156Z,1.87
2023-04-22T11:49:13.150Z,2.20
2023-04-22T11:51:53.905Z,2.77
2023-04-22T11:54:36.928Z,2.43
2023-04-22T11:57:06.693Z,2.20
2023-04-22T11:59:34.588Z,2.13
2023-04-22T12:02:06.505Z,1.90
2023-04-22T12:04:38.245Z,2.00
2023-04-22T12:07:06.200Z,2.10
2023-04-22T12:09:36.066Z,1.90
2023-04-22T12:12:05.122Z,1.90
2023-04-22T12:14:33.609Z,2.20
2023-04-22T12:17:05.337Z,2.17
2023-04-22T12:19:33.234Z,2.30
2023-04-22T12:22:01.133Z,2.07
2023-04-22T12:24:29.556Z,2.77
2023-04-22T12:26:58.841Z,2.43
2023-04-22T12:29:33.278Z,2.60
2023-04-22T12:32:01.194Z,2.10
2023-04-22T12:34:37.638Z,2.13
2023-04-22T12:37:05.607Z,2.30
2023-04-22T12:39:33.527Z,2.10
2023-04-22T12:42:02.811Z,2.47
2023-04-22T12:44:30.750Z,2.67
2023-04-22T12:46:58.725Z,2.10
2023-04-22T12:49:26.685Z,1.97
2023-04-22T12:51:54.868Z,2.10
2023-04-22T12:54:23.361Z,1.80
2023-04-22T12:56:52.087Z,1.70
2023-04-22T12:59:21.397Z,2.40
2023-04-22T13:01:49.433Z,2.00
2023-04-22T13:04:20.076Z,1.90
2023-04-22T13:06:50.534Z,2.30
2023-04-22T13:09:18.523Z,2.50
2023-04-22T13:11:49.169Z,2.10
2023-04-22T13:14:17.020Z,2.00
2023-04-22T13:16:46.581Z,2.47
2023-04-22T13:19:14.820Z,2.40
2023-04-22T13:21:42.816Z,2.20
2023-04-22T13:24:10.909Z,1.77
2023-04-22T13:26:39.651Z,1.97
2023-04-22T13:29:11.141Z,1.80
2023-04-22T13:31:39.494Z,1.53
2023-04-22T13:34:08.811Z,1.70
2023-04-22T13:36:36.701Z,1.60
2023-04-22T13:39:05.119Z,1.67
2023-04-22T13:41:33.015Z,1.63
2023-04-22T13:44:00.933Z,1.73
2023-04-22T13:46:28.885Z,1.60
2023-04-22T13:48:56.865Z,1.80
2023-04-22T13:51:26.364Z,1.87
2023-04-22T13:53:54.277Z,1.70
2023-04-22T13:56:22.176Z,2.07
2023-04-22T13:58:50.107Z,1.70
2023-04-22T14:01:18.125Z,2.00
2023-04-22T14:03:47.014Z,1.70
2023-04-22T14:06:15.711Z,2.00
2023-04-22T14:08:45.304Z,1.90
2023-04-22T14:11:13.789Z,1.70
2023-04-22T14:13:42.453Z,1.90
2023-04-22T14:16:11.889Z,1.67
2023-04-22T14:18:40.929Z,1.77
2023-04-22T14:21:10.276Z,1.80
2023-04-22T14:23:38.719Z,1.90
2023-04-22T14:26:08.998Z,2.23
2023-04-22T14:28:37.651Z,1.90
2023-04-22T14:31:06.232Z,1.70
2023-04-22T14:33:34.373Z,2.00
2023-04-22T14:36:02.271Z,2.07
2023-04-22T14:38:30.629Z,1.70
2023-04-22T14:40:58.524Z,2.20
2023-04-22T14:43:27.785Z,1.77
2023-04-22T14:45:55.685Z,1.67
2023-04-22T14:48:24.938Z,2.30
2023-04-22T14:50:52.951Z,1.77
2023-04-22T14:53:21.572Z,2.50
2023-04-22T14:55:49.422Z,2.27
2023-04-22T14:58:17.351Z,1.90
2023-04-22T15:00:48.357Z,2.00
2023-04-22T15:03:16.579Z,2.10
2023-04-22T15:05:49.096Z,1.77
2023-04-22T15:08:17.022Z,1.87
2023-04-22T15:10:44.934Z,1.97
2023-04-22T15:13:12.848Z,1.97
2023-04-22T15:15:40.764Z,1.83
2023-04-22T15:18:10.507Z,2.00
2023-04-22T15:20:38.569Z,1.97
2023-04-22T15:23:06.592Z,1.80
2023-04-22T15:25:35.549Z,1.83
2023-04-22T15:28:04.139Z,1.90
2023-04-22T15:30:32.019Z,1.90
2023-04-22T15:32:59.955Z,1.87
2023-04-22T15:35:29.241Z,2.27
2023-04-22T15:37:59.098Z,2.07
2023-04-22T15:40:27.103Z,1.90
2023-04-22T15:42:54.972Z,1.67
2023-04-22T15:45:22.945Z,1.53
2023-04-22T15:47:52.299Z,2.13
2023-04-22T15:50:23.262Z,2.13
2023-04-22T15:52:52.606Z,2.10
2023-04-22T15:55:21.146Z,2.10
2023-04-22T15:57:49.070Z,3.33
2023-04-22T16:00:17.362Z,1.90
2023-04-22T16:02:46.468Z,2.77
2023-04-22T16:05:15.106Z,2.07
2023-04-22T16:07:43.164Z,2.70
2023-04-22T16:10:12.901Z,1.80
2023-04-22T16:12:41.184Z,2.27
2023-04-22T16:15:10.944Z,1.83
2023-04-22T16:17:39.196Z,1.77
2023-04-22T16:20:08.669Z,2.40
2023-04-22T16:22:36.999Z,1.90
2023-04-22T16:25:05.639Z,2.20
2023-04-22T16:27:34.981Z,2.20
2023-04-22T16:30:02.953Z,2.67
2023-04-22T16:32:31.063Z,2.53
2023-04-22T16:34:59.056Z,1.80
2023-04-22T16:37:27.295Z,2.40
2023-04-22T16:39:55.307Z,2.60
2023-04-22T16:42:23.178Z,2.53
2023-04-22T16:44:52.477Z,3.20
2023-04-22T16:47:20.491Z,3.20
2023-04-22T16:49:48.601Z,2.90
2023-04-22T16:52:16.817Z,2.53
2023-04-22T16:54:44.772Z,2.40
2023-04-22T16:57:12.854Z,3.00
2023-04-22T16:59:41.037Z,2.80
2023-04-22T17:02:10.694Z,3.10
2023-04-22T17:04:38.696Z,2.60
2023-04-22T17:07:06.676Z,2.30
2023-04-22T17:09:34.602Z,2.30
2023-04-22T17:12:02.635Z,3.07
2023-04-22T17:14:31.093Z,2.43
2023-04-22T17:16:58.994Z,3.23
2023-04-22T17:19:28.326Z,3.50
2023-04-22T17:21:56.384Z,3.63
2023-04-22T17:24:24.952Z,4.93
2023-04-22T17:26:52.849Z,3.50
2023-04-22T17:29:21.785Z,2.50
2023-04-22T17:31:49.939Z,2.13
2023-04-22T17:34:17.953Z,2.10
2023-04-22T17:36:47.218Z,2.50
2023-04-22T17:39:15.430Z,2.60
2023-04-22T17:41:43.342Z,2.50
2023-04-22T17:44:11.472Z,2.37
2023-04-22T17:46:41.157Z,2.27
2023-04-22T17:49:09.193Z,2.37
2023-04-22T17:51:37.123Z,2.00
2023-04-22T17:54:07.003Z,2.30
2023-04-22T17:56:35.418Z,2.13
2023-04-22T17:59:03.374Z,2.20
2023-04-22T18:01:31.432Z,2.33
2023-04-22T18:04:00.345Z,2.30
2023-04-22T18:06:29.161Z,2.07
2023-04-22T18:08:57.126Z,2.30
2023-04-22T18:11:27.913Z,2.00
2023-04-22T18:13:56.090Z,1.77
2023-04-22T18:16:24.114Z,1.70
2023-04-22T18:18:52.247Z,1.77
2023-04-22T18:21:30.206Z,2.17
2023-04-22T18:23:58.576Z,1.83
2023-04-22T18:26:27.927Z,1.87
2023-04-22T18:28:56.255Z,1.67
2023-04-22T18:31:24.670Z,1.63
2023-04-22T18:33:52.641Z,1.97
2023-04-22T18:36:21.443Z,2.00
2023-04-22T18:38:49.313Z,1.90
2023-04-22T18:41:17.280Z,2.00
2023-04-22T18:43:48.423Z,2.43
2023-04-22T18:46:16.471Z,2.40
2023-04-22T18:48:58.023Z,2.50
2023-04-22T18:51:34.887Z,2.33
2023-04-22T18:54:03.053Z,2.73
2023-04-22T18:56:32.831Z,2.80
2023-04-22T18:59:02.318Z,3.17
2023-04-22T19:01:30.838Z,2.80
2023-04-22T19:04:01.652Z,2.70
2023-04-22T19:06:30.120Z,2.30
2023-04-22T19:08:58.246Z,2.47
2023-04-22T19:11:26.786Z,2.90
2023-04-22T19:13:54.914Z,2.23
2023-04-22T19:16:26.321Z,2.87
2023-04-22T19:18:54.848Z,2.67
2023-04-22T19:21:23.153Z,2.87
2023-04-22T19:23:52.875Z,2.87
2023-04-22T19:26:22.131Z,3.20
2023-04-22T19:28:50.416Z,3.33
2023-04-22T19:31:18.785Z,2.70
2023-04-22T19:33:48.625Z,2.77
2023-04-22T19:36:16.817Z,2.70
2023-04-22T19:38:44.846Z,2.60
2023-04-22T19:41:13.602Z,3.43
2023-04-22T19:43:48.344Z,3.20
2023-04-22T19:46:16.768Z,2.57
2023-04-22T19:48:45.423Z,3.80
2023-04-22T19:51:15.221Z,3.33
2023-04-22T19:53:44.685Z,3.83
2023-04-22T19:56:26.834Z,3.00
2023-04-22T19:59:03.219Z,3.60
2023-04-22T20:01:36.471Z,3.17
2023-04-22T20:04:08.987Z,3.20
2023-04-22T20:06:41.613Z,3.27
2023-04-22T20:09:10.568Z,3.67
2023-04-22T20:11:39.017Z,3.50
2023-04-22T20:14:09.796Z,3.33
2023-04-22T20:16:38.712Z,3.23
2023-04-22T20:19:07.069Z,3.50
2023-04-22T20:21:37.035Z,3.30
2023-04-22T20:24:06.904Z,3.27
2023-04-22T20:26:35.175Z,3.30
2023-04-22T20:29:07.965Z,3.60
2023-04-22T20:31:36.384Z,4.00
2023-04-22T20:34:05.058Z,4.30
2023-04-22T20:36:33.854Z,6.43
2023-04-22T20:39:05.388Z,5.20
2023-04-22T20:41:39.251Z,4.50
2023-04-22T20:44:07.872Z,5.63
2023-04-22T20:46:35.908Z,4.17
2023-04-22T20:49:04.705Z,4.33
2023-04-22T20:51:32.842Z,4.27
2023-04-22T20:54:00.972Z,4.00
2023-04-22T20:56:28.867Z,4.13
2023-04-22T20:58:58.167Z,4.50
2023-04-22T21:01:27.514Z,4.77
2023-04-22T21:03:57.719Z,4.97
2023-04-22T21:06:29.152Z,5.10
2023-04-22T21:08:58.333Z,4.27
2023-04-22T21:11:26.960Z,4.87
2023-04-22T21:13:55.536Z,4.83
2023-04-22T21:16:29.743Z,5.20
2023-04-22T21:19:01.545Z,4.77
2023-04-22T21:21:34.242Z,4.93
2023-04-22T21:24:03.430Z,4.40
2023-04-22T21:26:32.094Z,5.00
2023-04-22T21:29:00.882Z,4.70
2023-04-22T21:31:30.979Z,5.10
2023-04-22T21:34:00.503Z,4.83
2023-04-22T21:36:28.722Z,5.17
2023-04-22T21:38:56.859Z,4.60
2023-04-22T21:41:25.254Z,4.63
2023-04-22T21:43:53.219Z,4.97
2023-04-22T21:46:22.519Z,4.70
2023-04-22T21:48:51.880Z,4.90
2023-04-22T21:51:20.016Z,5.60
2023-04-22T21:53:48.084Z,5.17
2023-04-22T21:56:16.183Z,5.13
2023-04-22T21:58:44.270Z,6.10
2023-04-22T22:01:12.327Z,4.87
2023-04-22T22:03:40.540Z,5.20
2023-04-22T22:06:10.255Z,5.27
2023-04-22T22:08:38.734Z,4.53
2023-04-22T22:11:10.674Z,5.37
2023-04-22T22:13:43.041Z,5.17
2023-04-22T22:16:11.428Z,5.60
2023-04-22T22:18:39.329Z,5.77
2023-04-22T22:21:09.111Z,5.70
2023-04-22T22:23:37.146Z,5.80
2023-04-22T22:26:05.513Z,5.97
2023-04-22T22:28:33.577Z,6.10
2023-04-22T22:31:02.473Z,5.37
2023-04-22T22:33:30.750Z,6.23
2023-04-22T22:35:58.874Z,5.93
2023-04-22T22:38:28.230Z,5.77
2023-04-22T22:40:56.208Z,5.87
2023-04-22T22:43:24.484Z,5.90
2023-04-22T22:45:52.554Z,6.33
2023-04-22T22:48:20.964Z,5.77
2023-04-22T22:50:49.180Z,6.53
2023-04-22T22:53:18.304Z,6.63
2023-04-22T22:55:47.738Z,5.93
2023-04-22T22:58:15.656Z,6.60
2023-04-22T23:00:43.662Z,6.80
2023-04-22T23:03:11.770Z,6.07
2023-04-22T23:05:40.017Z,6.73
2023-04-22T23:08:08.045Z,6.73
2023-04-22T23:10:36.030Z,6.93
2023-04-22T23:13:05.367Z,6.17
2023-04-22T23:15:33.306Z,6.47
2023-04-22T23:18:01.429Z,7.03
2023-04-22T23:20:29.569Z,6.10
2023-04-22T23:22:58.546Z,7.10
2023-04-22T23:25:27.452Z,6.17
2023-04-22T23:27:56.067Z,6.83
2023-04-22T23:30:26.223Z,7.57
2023-04-22T23:32:57.791Z,7.10
2023-04-22T23:35:27.470Z,7.77
2023-04-22T23:37:55.900Z,7.40
2023-04-22T23:40:24.023Z,7.23
2023-04-22T23:42:52.005Z,7.47
2023-04-22T23:45:19.987Z,7.47
2023-04-22T23:47:49.416Z,7.10
2023-04-22T23:50:19.195Z,7.43
2023-04-22T23:52:47.339Z,7.20
2023-04-22T23:55:16.898Z,7.93
2023-04-22T23:57:45.456Z,7.70
